Terminal Aerodrome Forecast
Issued by NWS

Home | Current Version | Previous Version | Graphics & Text | Print | Product List | Glossary On
Versions: 1 2 3 4 5 6 7 8 9 10 11 12 13 14 15
000
FTUS43 KUNR 201720
TAFGCC
TAF
KGCC 201720Z 2018/2118 34012KT P6SM BKN050
     FM210300 27006KT P6SM SKC
     FM211200 32009KT P6SM SCT100=

USA.gov is the U.S. government's official web portal to all federal, state and local government web resources and services.